Time;durP1;ratioP1;P1;durP2;ratioP2;P2;SDS_P1;SDS_P2;PMS_P1;PMS_P2;Temp;Humidity;BMP_temperature;BMP_pressure;BME280_temperature;BME280_humidity;BME280_pressure;Samples;Min_cycle;Max_cycle;Signal;HPM_P1;HPM_P2
2022/03/04 00:02:12;;;;;;;5.60;0.85;;;24.50;99.90;;;;;;5055727;28;20259;-84
2022/03/04 00:05:06;;;;;;;9.18;1.08;;;24.50;99.90;;;;;;5055803;28;20185;-89
2022/03/04 00:07:44;;;;;;;7.97;1.00;;;24.50;99.90;;;;;;5056144;28;20636;-86
2022/03/04 00:10:18;;;;;;;7.35;1.23;;;24.60;99.90;;;;;;5056147;28;20595;-86
2022/03/04 00:12:53;;;;;;;6.13;1.20;;;24.50;99.90;;;;;;5043177;28;20371;-85
2022/03/04 00:15:43;;;;;;;5.10;0.90;;;24.50;99.90;;;;;;5055791;28;20246;-90
2022/03/04 00:18:21;;;;;;;6.68;1.13;;;24.20;99.90;;;;;;5036689;28;20217;-89
2022/03/04 00:20:55;;;;;;;5.82;1.10;;;24.10;99.90;;;;;;5036070;28;20205;-87
2022/03/04 00:29:58;;;;;;;4.10;0.82;;;24.20;99.90;;;;;;5020467;28;20590;-88
2022/03/04 00:32:55;;;;;;;2.72;0.80;;;24.30;99.90;;;;;;5037044;28;20194;-88
2022/03/04 00:35:32;;;;;;;10.18;1.00;;;24.40;99.90;;;;;;5044088;28;20610;-87
2022/03/04 00:38:08;;;;;;;4.22;0.90;;;24.50;99.90;;;;;;5054717;28;20599;-87
2022/03/04 00:41:03;;;;;;;6.30;0.85;;;24.60;99.90;;;;;;5055754;28;20192;-89
2022/03/04 00:43:50;;;;;;;;;;;;;;;;;;;;;
2022/03/04 00:46:22;;;;;;;11.43;1.40;;;24.40;99.90;;;;;;5055080;28;20696;-86
2022/03/04 00:48:52;;;;;;;6.20;1.10;;;24.30;99.90;;;;;;5035144;28;20206;-87
2022/03/04 00:51:23;;;;;;;7.00;1.00;;;24.10;99.90;;;;;;5035161;28;20195;-85
2022/03/04 00:54:01;;;;;;;5.30;0.80;;;23.80;99.90;;;;;;5034974;28;20686;-90
2022/03/04 00:56:36;;;;;;;5.80;0.93;;;23.80;99.90;;;;;;5034787;28;20232;-85
2022/03/04 00:59:13;;;;;;;8.10;1.02;;;23.60;99.90;;;;;;5035043;28;20198;-90
2022/03/04 01:04:51;;;;;;;10.50;1.10;;;23.60;99.90;;;;;;5007526;28;20220;-89
2022/03/04 01:10:54;;;;;;;5.07;0.90;;;24.00;99.90;;;;;;5026001;28;20206;-95
2022/03/04 01:13:33;;;;;;;6.20;0.90;;;24.10;99.90;;;;;;5034629;28;20198;-91
2022/03/04 01:16:22;;;;;;;6.28;0.82;;;24.10;99.90;;;;;;5034746;28;20190;-86
2022/03/04 01:19:13;;;;;;;7.85;0.98;;;24.20;99.90;;;;;;5034627;28;20206;-91
2022/03/04 01:21:46;;;;;;;8.13;1.25;;;24.20;99.90;;;;;;5030120;28;20206;-86
2022/03/04 01:24:25;;;;;;;5.97;0.95;;;24.40;99.90;;;;;;5045215;28;20190;-89
2022/03/04 01:27:03;;;;;;;3.88;0.73;;;24.30;99.90;;;;;;5053810;28;20193;-83
2022/03/04 01:29:38;;;;;;;5.78;0.70;;;24.20;99.90;;;;;;5050364;28;20221;-88
2022/03/04 01:32:20;;;;;;;5.35;0.80;;;24.10;99.90;;;;;;5037608;28;20200;-86
2022/03/04 01:34:51;;;;;;;3.20;0.80;;;24.00;99.90;;;;;;5039604;28;20228;-85
2022/03/04 01:37:25;;;;;;;3.83;0.82;;;23.90;99.90;;;;;;5053814;28;20233;-87
2022/03/04 01:39:55;;;;;;;3.03;0.85;;;23.90;99.90;;;;;;5053953;28;20186;-85
2022/03/04 01:45:20;;;;;;;3.28;1.00;;;24.00;99.90;;;;;;5052294;28;20209;-86
2022/03/04 01:48:01;;;;;;;5.90;0.82;;;24.10;99.90;;;;;;5041627;28;20558;-87
2022/03/04 01:50:41;;;;;;;4.35;0.80;;;24.30;99.90;;;;;;5034487;28;20206;-87
2022/03/04 01:53:12;;;;;;;4.57;0.80;;;24.30;99.90;;;;;;5033839;28;20237;-85
2022/03/04 01:55:54;;;;;;;5.13;0.90;;;24.30;99.90;;;;;;5033545;28;20196;-87
2022/03/04 01:58:25;;;;;;;6.53;0.90;;;24.40;99.90;;;;;;5041630;28;20296;-85
2022/03/04 02:00:58;;;;;;;3.40;0.77;;;24.50;99.90;;;;;;5046137;28;20185;-86
2022/03/04 02:03:31;;;;;;;5.03;0.93;;;24.50;99.90;;;;;;5053435;28;20217;-86
2022/03/04 02:06:02;;;;;;;3.85;0.88;;;24.70;99.90;;;;;;5033610;28;20248;-85
2022/03/04 02:08:33;;;;;;;4.80;0.90;;;24.80;99.90;;;;;;5045666;28;20186;-86
2022/03/04 02:11:03;;;;;;;5.00;0.90;;;25.00;99.90;;;;;;5035649;28;20192;-86
2022/03/04 02:13:37;;;;;;;7.78;1.00;;;24.80;99.90;;;;;;5037813;28;20187;-87
2022/03/04 02:16:20;;;;;;;4.47;1.02;;;24.90;99.90;;;;;;5043534;28;20210;-88
2022/03/04 02:18:54;;;;;;;5.13;0.90;;;24.90;99.90;;;;;;5036783;28;20273;-86
2022/03/04 02:21:41;;;;;;;8.73;0.80;;;24.90;99.90;;;;;;5045192;28;20186;-85
2022/03/04 02:24:14;;;;;;;4.95;0.93;;;24.80;99.90;;;;;;5048077;28;20209;-85
2022/03/04 02:26:45;;;;;;;3.97;0.80;;;24.90;99.90;;;;;;5041969;28;20197;-83
2022/03/04 02:29:18;;;;;;;6.45;1.10;;;25.10;99.90;;;;;;5044596;28;20220;-87
2022/03/04 02:31:50;;;;;;;3.47;0.60;;;25.00;99.90;;;;;;5040364;28;20192;-89
2022/03/04 02:34:20;;;;;;;3.08;0.40;;;25.00;99.90;;;;;;5037481;28;20210;-85
2022/03/04 02:36:52;;;;;;;2.40;0.40;;;24.90;99.90;;;;;;5037558;28;20649;-88
2022/03/04 02:39:24;;;;;;;3.33;0.57;;;25.00;99.90;;;;;;5039473;28;20585;-85
2022/03/04 02:41:55;;;;;;;5.15;0.93;;;25.00;99.90;;;;;;5033251;28;20197;-87
2022/03/04 02:44:25;;;;;;;7.40;1.00;;;25.00;99.90;;;;;;5040724;28;20233;-87
2022/03/04 02:46:56;;;;;;;8.63;1.40;;;24.90;99.90;;;;;;5051622;28;20642;-86
2022/03/04 02:49:27;;;;;;;6.20;1.20;;;24.80;99.90;;;;;;5037220;28;20712;-86
2022/03/04 02:51:58;;;;;;;7.28;1.10;;;24.90;99.90;;;;;;5044710;28;20197;-86
2022/03/04 02:54:33;;;;;;;6.82;1.10;;;25.00;99.90;;;;;;5044023;28;20206;-83
2022/03/04 02:57:07;;;;;;;3.88;1.40;;;25.10;99.90;;;;;;5048340;28;20656;-88
2022/03/04 02:59:37;;;;;;;4.72;1.80;;;25.20;99.90;;;;;;5046785;28;20228;-85
2022/03/04 03:02:08;;;;;;;4.82;1.10;;;25.20;99.90;;;;;;5056918;28;20194;-87
2022/03/04 03:04:39;;;;;;;5.60;1.30;;;25.20;99.90;;;;;;5043136;28;20716;-85
2022/03/04 03:07:10;;;;;;;5.47;1.10;;;25.20;99.90;;;;;;5047827;28;20194;-90
2022/03/04 03:09:43;;;;;;;3.25;0.80;;;25.20;99.90;;;;;;5044584;28;20191;-88
2022/03/04 03:12:14;;;;;;;3.65;0.80;;;25.20;99.90;;;;;;5051582;28;20197;-86
2022/03/04 03:14:44;;;;;;;2.78;0.60;;;25.40;99.90;;;;;;5049535;28;20182;-85
2022/03/04 03:17:15;;;;;;;3.22;1.08;;;25.40;99.90;;;;;;5051742;28;20190;-87
2022/03/04 03:19:46;;;;;;;1.40;0.60;;;25.20;99.90;;;;;;5054486;28;20201;-86
2022/03/04 03:22:18;;;;;;;2.60;0.57;;;25.00;99.90;;;;;;5036612;28;20560;-85
2022/03/04 03:24:51;;;;;;;3.88;0.75;;;24.70;99.90;;;;;;5044326;28;20327;-87
2022/03/04 03:27:22;;;;;;;4.63;0.80;;;24.50;99.90;;;;;;5044510;28;20233;-86
2022/03/04 03:29:53;;;;;;;4.10;1.20;;;24.40;99.90;;;;;;5049353;28;20298;-85
2022/03/04 03:32:24;;;;;;;4.43;1.13;;;24.40;99.90;;;;;;5040167;28;20182;-86
2022/03/04 03:34:54;;;;;;;6.10;1.45;;;24.60;99.90;;;;;;5043964;28;20190;-87
2022/03/04 03:37:25;;;;;;;4.57;1.02;;;24.60;99.90;;;;;;5039863;28;20267;-84
2022/03/04 03:39:58;;;;;;;7.55;1.10;;;24.70;99.90;;;;;;5048042;28;20555;-90
2022/03/04 03:42:29;;;;;;;6.28;1.00;;;25.00;99.90;;;;;;5043446;28;20198;-89
2022/03/04 03:44:59;;;;;;;4.93;1.08;;;25.10;99.90;;;;;;5044245;28;20190;-87
2022/03/04 03:47:30;;;;;;;7.63;1.35;;;25.30;99.90;;;;;;5043222;28;20198;-90
2022/03/04 03:50:01;;;;;;;4.70;0.85;;;25.40;99.90;;;;;;5047698;28;20191;-85
2022/03/04 03:52:32;;;;;;;5.30;0.90;;;25.50;99.90;;;;;;5040318;28;20186;-85
2022/03/04 03:55:05;;;;;;;7.57;1.20;;;25.50;99.90;;;;;;5044733;28;20706;-84
2022/03/04 03:57:35;;;;;;;3.78;1.05;;;25.60;99.90;;;;;;5056135;28;20568;-89
2022/03/04 04:00:10;;;;;;;5.25;1.00;;;25.50;99.90;;;;;;5042687;28;20194;-88
2022/03/04 04:02:41;;;;;;;3.55;0.93;;;25.40;99.90;;;;;;5047937;28;20275;-86
2022/03/04 04:05:13;;;;;;;6.18;1.00;;;25.20;99.90;;;;;;5046290;28;20205;-89
2022/03/04 04:07:44;;;;;;;6.32;1.20;;;25.10;99.90;;;;;;5047075;28;20533;-91
2022/03/04 04:10:17;;;;;;;7.93;1.35;;;25.10;99.90;;;;;;5043969;28;20206;-88
2022/03/04 04:12:47;;;;;;;8.52;1.40;;;25.10;99.90;;;;;;5055343;28;20205;-91
2022/03/04 04:15:18;;;;;;;7.05;1.15;;;25.10;99.90;;;;;;5051697;28;20209;-89
2022/03/04 04:17:49;;;;;;;4.60;1.00;;;25.00;99.90;;;;;;5040990;28;20193;-89
2022/03/04 04:20:20;;;;;;;5.80;1.15;;;24.90;99.90;;;;;;5052363;28;20259;-86
2022/03/04 04:22:50;;;;;;;7.97;1.23;;;25.00;99.90;;;;;;5042808;28;20197;-85
2022/03/04 04:25:23;;;;;;;4.85;1.52;;;25.10;99.90;;;;;;5051735;28;20247;-90
2022/03/04 04:27:54;;;;;;;9.40;1.83;;;25.30;99.90;;;;;;5043299;28;20201;-90
2022/03/04 04:30:25;;;;;;;7.30;1.17;;;25.40;99.90;;;;;;5043194;28;20251;-87
2022/03/04 04:32:55;;;;;;;4.93;1.17;;;25.40;99.90;;;;;;5042861;28;20209;-85
2022/03/04 04:35:26;;;;;;;4.45;1.10;;;25.50;99.90;;;;;;5054921;28;20251;-87
2022/03/04 04:37:57;;;;;;;9.13;1.33;;;25.60;99.90;;;;;;5043088;28;20233;-89
2022/03/04 04:40:29;;;;;;;5.40;1.27;;;25.70;99.90;;;;;;5055304;28;20190;-87
2022/03/04 04:43:00;;;;;;;5.45;1.20;;;25.50;99.90;;;;;;5042983;28;20214;-88
2022/03/04 04:45:30;;;;;;;6.55;1.20;;;25.40;99.90;;;;;;5035333;28;20190;-87
2022/03/04 04:48:01;;;;;;;4.10;0.98;;;25.30;99.90;;;;;;5042230;28;20186;-90
2022/03/04 04:50:32;;;;;;;5.28;0.90;;;25.10;99.90;;;;;;5039429;28;20186;-89
2022/03/04 04:53:03;;;;;;;8.60;1.00;;;24.90;99.90;;;;;;5043557;28;20193;-93
2022/03/04 04:55:36;;;;;;;5.22;1.20;;;24.80;99.90;;;;;;5055091;28;20190;-87
2022/03/04 04:58:06;;;;;;;9.32;1.33;;;24.80;99.90;;;;;;5041944;28;20213;-88
2022/03/04 05:00:37;;;;;;;6.47;1.45;;;24.80;99.90;;;;;;5040443;28;20189;-88
2022/03/04 05:03:08;;;;;;;6.30;1.30;;;24.90;99.90;;;;;;5042520;28;20594;-91
2022/03/04 05:05:38;;;;;;;7.82;1.70;;;25.00;99.90;;;;;;5048865;28;20194;-88
2022/03/04 05:08:09;;;;;;;7.20;1.30;;;24.90;99.90;;;;;;5044731;28;20198;-86
2022/03/04 05:10:41;;;;;;;11.65;1.80;;;24.70;99.90;;;;;;5037618;28;20194;-87
2022/03/04 05:13:12;;;;;;;6.90;1.48;;;24.60;99.90;;;;;;5046028;28;20221;-90
2022/03/04 05:15:43;;;;;;;11.43;1.70;;;24.60;99.90;;;;;;5040471;28;20218;-87
2022/03/04 05:18:14;;;;;;;10.27;1.83;;;24.60;99.90;;;;;;5043457;28;20633;-88
2022/03/04 05:20:45;;;;;;;10.20;1.70;;;24.60;99.90;;;;;;5054620;28;20197;-91
2022/03/04 05:23:58;;;;;;;10.80;1.90;;;24.60;99.90;;;;;;5043348;28;20189;-91
2022/03/04 05:26:10;;;;;;;9.18;1.70;;;24.50;99.90;;;;;;5034380;28;20222;-90
2022/03/04 05:28:41;;;;;;;10.35;1.60;;;24.60;99.90;;;;;;5045381;28;20227;-88
2022/03/04 05:31:11;;;;;;;15.63;1.95;;;24.60;99.90;;;;;;5040634;28;20190;-89
2022/03/04 05:33:42;;;;;;;8.50;1.20;;;24.80;99.90;;;;;;5039278;28;20264;-86
2022/03/04 05:36:16;;;;;;;9.20;1.33;;;24.80;99.90;;;;;;5049184;28;20596;-88
2022/03/04 05:38:46;;;;;;;8.90;1.23;;;24.90;99.90;;;;;;5052276;28;20229;-87
2022/03/04 05:41:20;;;;;;;7.28;1.48;;;24.90;99.90;;;;;;5038721;28;20186;-86
2022/03/04 05:43:51;;;;;;;9.93;1.52;;;24.90;99.90;;;;;;5047238;28;20241;-87
2022/03/04 05:46:22;;;;;;;4.85;1.17;;;25.10;99.90;;;;;;5045148;28;20194;-88
2022/03/04 05:48:55;;;;;;;5.43;1.00;;;25.10;99.90;;;;;;5042979;28;20273;-89
2022/03/04 05:51:25;;;;;;;7.32;1.23;;;25.10;99.90;;;;;;5044652;28;20292;-89
2022/03/04 05:53:56;;;;;;;9.65;1.55;;;25.10;99.90;;;;;;5042811;28;20197;-88
2022/03/04 05:56:29;;;;;;;6.82;1.25;;;25.10;99.90;;;;;;5048488;28;20186;-86
2022/03/04 05:58:59;;;;;;;4.38;0.88;;;25.10;99.90;;;;;;5041738;28;20204;-90
2022/03/04 06:01:30;;;;;;;6.68;1.25;;;25.00;99.90;;;;;;5053535;28;20193;-89
2022/03/04 06:04:01;;;;;;;12.73;1.73;;;25.00;99.90;;;;;;5044241;28;20214;-87
2022/03/04 06:06:31;;;;;;;6.88;1.35;;;25.10;99.90;;;;;;5041327;28;20186;-88
2022/03/04 06:09:03;;;;;;;7.22;0.95;;;25.30;99.90;;;;;;5044976;28;20580;-87
2022/03/04 06:11:36;;;;;;;6.00;1.20;;;25.30;99.90;;;;;;5043069;28;20661;-87
2022/03/04 06:14:07;;;;;;;7.43;1.60;;;25.30;99.90;;;;;;5053548;28;20198;-86
2022/03/04 06:16:38;;;;;;;6.65;1.20;;;25.40;99.90;;;;;;5039011;28;20205;-91
2022/03/04 06:19:08;;;;;;;6.57;1.30;;;25.50;99.90;;;;;;5044570;28;20198;-87
2022/03/04 06:21:39;;;;;;;7.32;1.40;;;25.50;99.90;;;;;;5041432;28;20226;-89
2022/03/04 06:24:10;;;;;;;5.97;1.15;;;25.50;99.90;;;;;;5043576;28;20216;-89
2022/03/04 06:26:42;;;;;;;5.15;1.20;;;25.40;99.90;;;;;;5036631;28;20198;-89
2022/03/04 06:29:13;;;;;;;8.15;1.15;;;25.30;99.90;;;;;;5041791;28;20218;-88
2022/03/04 06:31:44;;;;;;;9.68;1.90;;;25.00;99.90;;;;;;5044348;28;20205;-88
2022/03/04 06:34:14;;;;;;;6.45;1.50;;;24.80;99.90;;;;;;5038482;28;20252;-88
2022/03/04 06:36:45;;;;;;;7.43;1.48;;;24.70;99.90;;;;;;5035723;28;20198;-92
2022/03/04 06:39:16;;;;;;;4.75;1.50;;;24.60;99.90;;;;;;5053651;28;20208;-89
2022/03/04 06:41:49;;;;;;;5.82;1.20;;;24.50;99.90;;;;;;5053847;28;20210;-88
2022/03/04 06:44:19;;;;;;;7.05;1.10;;;24.40;99.90;;;;;;5053298;28;20213;-88
2022/03/04 06:46:50;;;;;;;5.55;1.17;;;24.30;99.90;;;;;;5053669;28;20227;-87
2022/03/04 06:49:23;;;;;;;7.57;1.25;;;24.20;99.90;;;;;;5047529;28;20190;-88
2022/03/04 06:51:54;;;;;;;4.97;1.13;;;24.20;99.90;;;;;;5033499;28;20217;-89
2022/03/04 06:54:25;;;;;;;4.78;1.30;;;24.10;99.90;;;;;;5033468;28;20646;-88
2022/03/04 06:56:58;;;;;;;5.85;1.20;;;24.10;99.90;;;;;;5033293;28;20709;-88
2022/03/04 06:59:31;;;;;;;7.10;1.30;;;24.10;99.90;;;;;;5029182;28;20418;-86
2022/03/04 07:02:06;;;;;;;4.88;1.55;;;24.10;99.90;;;;;;5042956;28;20227;-92
2022/03/04 07:04:36;;;;;;;6.28;1.48;;;24.10;99.90;;;;;;5045153;28;20689;-89
2022/03/04 07:07:07;;;;;;;5.63;1.17;;;24.10;99.90;;;;;;5042744;28;20201;-88
2022/03/04 07:09:38;;;;;;;6.40;1.40;;;24.00;99.90;;;;;;5052160;28;20201;-89
2022/03/04 07:12:11;;;;;;;7.00;2.00;;;23.90;99.90;;;;;;5050375;28;20193;-90
2022/03/04 07:14:42;;;;;;;4.25;1.83;;;23.90;99.90;;;;;;5048557;28;20194;-92
2022/03/04 07:17:12;;;;;;;6.78;1.70;;;23.80;99.90;;;;;;5044786;28;20704;-92
2022/03/04 07:19:43;;;;;;;5.13;1.20;;;23.80;99.90;;;;;;5036218;28;20209;-89
2022/03/04 07:22:14;;;;;;;5.53;1.27;;;23.70;99.90;;;;;;5028508;28;20709;-89
2022/03/04 07:24:45;;;;;;;5.65;1.50;;;23.60;99.90;;;;;;5043297;28;20216;-87
2022/03/04 07:27:17;;;;;;;6.20;1.50;;;23.60;99.90;;;;;;5045110;28;20225;-89
2022/03/04 07:29:49;;;;;;;5.13;1.35;;;23.50;99.90;;;;;;5051601;28;20204;-90
2022/03/04 07:32:21;;;;;;;7.55;1.75;;;23.40;99.90;;;;;;5056773;28;20194;-90
2022/03/04 07:34:51;;;;;;;8.00;1.50;;;23.40;99.90;;;;;;5056045;28;20190;-90
2022/03/04 07:37:22;;;;;;;6.32;1.50;;;23.30;99.90;;;;;;5053677;28;20615;-89
2022/03/04 07:39:53;;;;;;;6.18;1.42;;;23.40;99.90;;;;;;5053247;28;20198;-87
2022/03/04 07:42:25;;;;;;;8.07;1.77;;;23.30;99.90;;;;;;5052474;28;20194;-88
2022/03/04 07:44:56;;;;;;;10.02;1.83;;;23.30;99.90;;;;;;5048306;28;20225;-87
2022/03/04 07:47:27;;;;;;;9.23;2.03;;;23.40;99.90;;;;;;5036284;28;20261;-87
2022/03/04 07:49:58;;;;;;;8.45;1.60;;;23.30;99.90;;;;;;5036109;28;20201;-87
2022/03/04 07:52:31;;;;;;;10.70;2.28;;;23.20;99.90;;;;;;5036156;28;20638;-87
2022/03/04 07:55:03;;;;;;;10.82;2.13;;;23.30;99.90;;;;;;5035897;28;20198;-86
2022/03/04 07:57:36;;;;;;;11.80;1.80;;;23.20;99.90;;;;;;5036161;28;20636;-86
2022/03/04 08:00:10;;;;;;;9.68;1.80;;;23.20;99.90;;;;;;5035962;28;20524;-87
2022/03/04 08:02:41;;;;;;;10.45;1.95;;;23.20;99.90;;;;;;5036197;28;20304;-87
2022/03/04 08:05:12;;;;;;;11.73;2.00;;;23.20;99.90;;;;;;5035656;28;20227;-87
2022/03/04 08:07:43;;;;;;;8.95;1.80;;;23.20;99.90;;;;;;5035752;28;20277;-87
2022/03/04 08:10:15;;;;;;;12.48;1.83;;;23.20;99.90;;;;;;5036031;28;20219;-88
2022/03/04 08:12:47;;;;;;;7.32;2.20;;;23.20;99.90;;;;;;5035754;28;20252;-88
2022/03/04 08:15:18;;;;;;;13.90;2.20;;;23.20;99.90;;;;;;5035585;28;20198;-88
2022/03/04 08:17:49;;;;;;;10.82;1.90;;;23.20;99.90;;;;;;5035590;28;20198;-86
2022/03/04 08:20:21;;;;;;;8.93;1.50;;;23.10;99.90;;;;;;5035810;28;20217;-87
2022/03/04 08:22:52;;;;;;;5.20;1.55;;;23.10;99.90;;;;;;5050741;28;20182;-86
2022/03/04 08:25:23;;;;;;;6.75;1.52;;;23.00;99.90;;;;;;5045738;28;20275;-87
2022/03/04 08:27:56;;;;;;;8.45;1.70;;;23.00;99.90;;;;;;5042427;28;20230;-87
2022/03/04 08:30:27;;;;;;;9.68;1.70;;;23.00;99.90;;;;;;5055341;28;20236;-86
2022/03/04 08:32:58;;;;;;;10.32;1.70;;;22.90;99.90;;;;;;5046744;28;20534;-87
2022/03/04 08:35:29;;;;;;;3.90;1.40;;;22.90;99.90;;;;;;5035232;28;20190;-86
2022/03/04 08:38:00;;;;;;;7.10;1.73;;;22.90;99.90;;;;;;5034989;28;20288;-88
2022/03/04 08:40:31;;;;;;;8.95;1.65;;;22.90;99.90;;;;;;5035055;28;20198;-87
2022/03/04 08:43:04;;;;;;;12.05;2.10;;;22.90;99.90;;;;;;5035071;28;20194;-87
2022/03/04 08:45:34;;;;;;;9.15;2.40;;;22.90;99.90;;;;;;5046911;28;20233;-87
2022/03/04 08:48:06;;;;;;;5.38;1.67;;;22.90;99.90;;;;;;5054919;28;20603;-87
2022/03/04 08:50:38;;;;;;;10.00;1.80;;;22.90;99.90;;;;;;5055082;28;20193;-87
2022/03/04 08:53:08;;;;;;;9.27;1.90;;;22.90;99.90;;;;;;5055046;28;20218;-88
2022/03/04 08:55:41;;;;;;;7.00;1.70;;;22.90;99.90;;;;;;5054355;28;20202;-87
2022/03/04 08:58:14;;;;;;;7.53;1.50;;;22.90;99.90;;;;;;5055109;28;20255;-87
2022/03/04 09:00:45;;;;;;;6.28;1.58;;;22.90;99.90;;;;;;5054777;28;20189;-87
2022/03/04 09:03:15;;;;;;;5.72;1.55;;;22.90;99.90;;;;;;5054593;28;20649;-88
2022/03/04 09:05:46;;;;;;;7.47;1.60;;;22.80;99.90;;;;;;5054818;28;20213;-86
2022/03/04 09:08:17;;;;;;;3.65;1.40;;;22.80;99.90;;;;;;5054528;28;20646;-86
2022/03/04 09:10:48;;;;;;;4.75;1.50;;;22.80;99.90;;;;;;5054401;28;20189;-87
2022/03/04 09:13:20;;;;;;;8.50;1.77;;;22.80;99.90;;;;;;5054503;28;20186;-86
2022/03/04 09:15:51;;;;;;;8.93;2.05;;;22.80;99.90;;;;;;5054685;28;20224;-86
2022/03/04 09:18:22;;;;;;;8.07;1.75;;;22.80;99.90;;;;;;5054691;28;20190;-86
2022/03/04 09:20:53;;;;;;;11.75;2.05;;;22.80;99.90;;;;;;5052419;28;20680;-86
2022/03/04 09:23:28;;;;;;;5.75;1.60;;;22.70;99.90;;;;;;5034290;28;20190;-86
2022/03/04 09:25:59;;;;;;;3.85;1.55;;;22.70;99.90;;;;;;5034739;28;20257;-86
2022/03/04 09:28:31;;;;;;;6.70;1.70;;;22.70;99.90;;;;;;5045347;28;20213;-86
2022/03/04 09:31:02;;;;;;;9.65;2.00;;;22.70;99.90;;;;;;5034196;28;20248;-85
2022/03/04 09:33:33;;;;;;;8.43;1.65;;;22.70;99.90;;;;;;5047611;28;20195;-86
2022/03/04 09:36:04;;;;;;;6.00;1.60;;;22.70;99.90;;;;;;5054172;28;20201;-86
2022/03/04 09:38:34;;;;;;;4.22;1.20;;;22.70;99.90;;;;;;5053578;28;20579;-86
2022/03/04 09:41:05;;;;;;;5.05;1.30;;;22.70;99.90;;;;;;5053930;28;20190;-85
2022/03/04 09:43:39;;;;;;;6.45;1.40;;;22.70;99.90;;;;;;5053919;28;20247;-86
2022/03/04 09:46:10;;;;;;;5.95;1.25;;;22.70;99.90;;;;;;5036736;28;20210;-84
2022/03/04 09:48:44;;;;;;;4.95;1.30;;;22.60;99.90;;;;;;5033942;28;20198;-85
2022/03/04 09:51:15;;;;;;;3.85;1.15;;;22.60;99.90;;;;;;5033807;28;20199;-85
2022/03/04 09:53:46;;;;;;;5.55;1.20;;;22.60;99.90;;;;;;5033646;28;20186;-85
2022/03/04 09:56:22;;;;;;;5.70;1.30;;;22.60;99.90;;;;;;5033818;28;20198;-84
2022/03/04 09:58:55;;;;;;;5.20;1.20;;;22.60;99.90;;;;;;5033777;28;20194;-86
2022/03/04 10:01:25;;;;;;;6.10;1.70;;;22.60;99.90;;;;;;5033755;28;20197;-85
2022/03/04 10:03:57;;;;;;;3.17;1.20;;;22.60;99.90;;;;;;5033812;28;20704;-85
2022/03/04 10:06:29;;;;;;;5.25;1.10;;;22.50;99.90;;;;;;5033061;28;20309;-85
2022/03/04 10:09:00;;;;;;;6.97;1.42;;;22.60;99.90;;;;;;5033292;28;20598;-86
2022/03/04 10:11:32;;;;;;;6.57;1.52;;;22.50;99.90;;;;;;5033608;28;20190;-85
2022/03/04 10:14:07;;;;;;;4.80;1.40;;;22.50;99.90;;;;;;5033481;28;20544;-85
2022/03/04 10:16:39;;;;;;;6.00;1.45;;;22.50;99.90;;;;;;5033561;28;20197;-86
2022/03/04 10:19:13;;;;;;;4.00;1.42;;;22.50;99.90;;;;;;5033342;28;20709;-84
2022/03/04 10:21:52;;;;;;;6.60;1.33;;;22.50;99.90;;;;;;5042283;28;20182;-86
2022/03/04 10:24:24;;;;;;;8.20;1.63;;;22.50;99.90;;;;;;5053305;28;20193;-86
2022/03/04 10:27:05;;;;;;;6.25;1.40;;;22.50;99.90;;;;;;5047699;28;20751;-85
2022/03/04 10:29:39;;;;;;;5.53;1.45;;;22.50;99.90;;;;;;5047616;28;20194;-85
2022/03/04 10:32:15;;;;;;;6.85;1.67;;;22.50;99.90;;;;;;5051077;28;20198;-85
2022/03/04 10:34:54;;;;;;;7.53;1.60;;;22.50;99.90;;;;;;5033154;28;20190;-86
2022/03/04 10:37:26;;;;;;;7.55;1.38;;;22.50;99.90;;;;;;5032983;28;20320;-85
2022/03/04 10:40:08;;;;;;;6.07;1.30;;;22.50;99.90;;;;;;5033358;28;20196;-86
2022/03/04 10:42:47;;;;;;;5.43;1.65;;;22.50;99.90;;;;;;5033171;28;20200;-85
2022/03/04 10:45:23;;;;;;;8.85;1.38;;;22.50;99.90;;;;;;5043001;28;20216;-85
2022/03/04 10:47:56;;;;;;;8.32;1.77;;;22.50;99.90;;;;;;5041212;28;20189;-85
2022/03/04 10:50:34;;;;;;;5.47;1.23;;;22.50;99.90;;;;;;5052824;28;20228;-86
2022/03/04 10:53:07;;;;;;;8.35;1.60;;;22.50;99.90;;;;;;5039077;28;20277;-85
2022/03/04 10:55:41;;;;;;;6.13;1.23;;;22.50;99.90;;;;;;5033048;28;20201;-85
2022/03/04 10:58:17;;;;;;;7.90;1.75;;;22.40;99.90;;;;;;5032953;28;20190;-86
2022/03/04 11:00:51;;;;;;;8.02;1.75;;;22.50;99.90;;;;;;5032966;28;20190;-87
2022/03/04 11:03:22;;;;;;;6.32;1.70;;;22.50;99.90;;;;;;5033013;28;20198;-86
2022/03/04 11:05:54;;;;;;;8.10;1.60;;;22.50;99.90;;;;;;5051674;28;20213;-86
2022/03/04 11:08:25;;;;;;;8.63;1.65;;;22.50;99.90;;;;;;5052748;28;20186;-85
2022/03/04 11:10:58;;;;;;;7.95;1.38;;;22.50;99.90;;;;;;5052777;28;20197;-86
2022/03/04 11:13:30;;;;;;;7.05;1.80;;;22.50;99.90;;;;;;5052716;28;20190;-86
2022/03/04 11:16:03;;;;;;;7.75;1.75;;;22.50;99.90;;;;;;5052873;28;20252;-85
2022/03/04 11:18:35;;;;;;;6.88;1.70;;;22.50;99.90;;;;;;5054348;28;20197;-85
2022/03/04 11:21:06;;;;;;;8.45;1.60;;;22.50;99.90;;;;;;5056331;28;20194;-86
2022/03/04 11:23:38;;;;;;;6.03;1.50;;;22.40;99.90;;;;;;5056579;28;20189;-86
2022/03/04 11:26:12;;;;;;;7.72;1.80;;;22.50;99.90;;;;;;5054848;28;20233;-85
2022/03/04 11:28:44;;;;;;;7.32;1.90;;;22.40;99.90;;;;;;5045173;28;20193;-84
2022/03/04 11:31:20;;;;;;;6.57;1.83;;;22.40;99.90;;;;;;5050911;28;20186;-84
2022/03/04 11:33:55;;;;;;;9.30;2.13;;;22.40;99.90;;;;;;5050363;28;20536;-84
2022/03/04 11:36:29;;;;;;;10.10;2.03;;;22.40;99.90;;;;;;5054883;28;20636;-84
2022/03/04 11:39:03;;;;;;;10.68;2.03;;;22.40;99.90;;;;;;5035469;28;20696;-84
2022/03/04 11:41:55;;;;;;;10.70;2.22;;;22.40;99.90;;;;;;5036587;28;20199;-84
2022/03/04 11:44:27;;;;;;;7.70;1.75;;;22.40;99.90;;;;;;5036309;28;20546;-84
2022/03/04 11:47:04;;;;;;;9.63;1.67;;;22.40;99.90;;;;;;5036086;28;20263;-85
2022/03/04 11:49:38;;;;;;;9.20;2.03;;;22.40;99.90;;;;;;5045876;28;20215;-84
2022/03/04 11:52:29;;;;;;;10.73;2.00;;;22.40;99.90;;;;;;5056098;28;20189;-84
2022/03/04 11:55:29;;;;;;;6.07;1.83;;;22.50;99.90;;;;;;5055917;28;20260;-84
2022/03/04 11:58:07;;;;;;;8.82;1.83;;;22.50;99.90;;;;;;5056112;28;20221;-84
2022/03/04 12:00:41;;;;;;;11.68;2.30;;;22.50;99.90;;;;;;5055869;28;20193;-83
2022/03/04 12:03:21;;;;;;;6.47;1.85;;;22.50;99.90;;;;;;5055617;28;20243;-84
2022/03/04 12:06:03;;;;;;;9.88;2.10;;;22.40;99.90;;;;;;5055700;28;20267;-86
2022/03/04 12:08:44;;;;;;;10.10;2.40;;;22.40;99.90;;;;;;5055954;28;20286;-87
2022/03/04 12:11:26;;;;;;;9.65;2.30;;;22.40;99.90;;;;;;5055499;28;20193;-86
2022/03/04 12:14:10;;;;;;;8.35;2.00;;;22.40;99.90;;;;;;5055342;28;20616;-86
2022/03/04 12:16:51;;;;;;;9.68;1.90;;;22.40;99.90;;;;;;5055775;28;20209;-86
2022/03/04 12:19:41;;;;;;;7.30;1.70;;;22.40;99.90;;;;;;5055638;28;20213;-86
2022/03/04 12:22:13;;;;;;;9.38;2.47;;;22.40;99.90;;;;;;5055525;28;20205;-86
2022/03/04 12:24:55;;;;;;;9.23;2.10;;;22.40;99.90;;;;;;5055518;28;20204;-86
2022/03/04 12:27:40;;;;;;;7.40;1.90;;;22.40;99.90;;;;;;5044430;28;20263;-86
2022/03/04 12:30:20;;;;;;;8.18;1.75;;;22.40;99.90;;;;;;5035102;28;20204;-86
2022/03/04 12:32:56;;;;;;;8.07;2.00;;;22.40;99.90;;;;;;5043563;28;20236;-86
2022/03/04 12:35:31;;;;;;;7.15;1.92;;;22.40;99.90;;;;;;5055194;28;20193;-86
2022/03/04 12:38:04;;;;;;;14.25;2.30;;;22.40;99.90;;;;;;5054952;28;20237;-86
2022/03/04 12:40:35;;;;;;;7.43;1.88;;;22.40;99.90;;;;;;5055262;28;20202;-86
2022/03/04 12:43:09;;;;;;;8.85;2.10;;;22.40;99.90;;;;;;5055011;28;20194;-86
2022/03/04 12:45:41;;;;;;;7.95;1.98;;;22.40;99.90;;;;;;5041509;28;20222;-87
2022/03/04 12:48:12;;;;;;;8.85;1.73;;;22.50;99.90;;;;;;5035018;28;20197;-86
2022/03/04 12:50:44;;;;;;;8.98;2.13;;;22.50;99.90;;;;;;5035140;28;20649;-85
2022/03/04 12:53:25;;;;;;;10.18;2.03;;;22.50;99.90;;;;;;5038622;28;20650;-85
2022/03/04 12:55:57;;;;;;;7.05;2.08;;;22.40;99.90;;;;;;5039712;28;20205;-85
2022/03/04 12:58:43;;;;;;;7.03;2.30;;;22.40;99.90;;;;;;5045867;28;20209;-86
2022/03/04 13:01:15;;;;;;;10.57;2.42;;;22.40;99.90;;;;;;5036605;28;20198;-86
2022/03/04 13:03:50;;;;;;;6.40;2.10;;;22.40;99.90;;;;;;5045902;28;20236;-86
2022/03/04 13:06:26;;;;;;;10.52;2.40;;;22.40;99.90;;;;;;5042610;28;20556;-87
2022/03/04 13:08:58;;;;;;;6.95;1.90;;;22.40;99.90;;;;;;5045488;28;20560;-85
2022/03/04 13:11:30;;;;;;;9.48;2.00;;;22.30;99.90;;;;;;5042214;28;20193;-85
2022/03/04 13:14:03;;;;;;;8.90;2.10;;;22.40;99.90;;;;;;5046979;28;20200;-85
2022/03/04 13:16:46;;;;;;;7.03;2.20;;;22.40;99.90;;;;;;5041347;28;20273;-86
2022/03/04 13:19:20;;;;;;;13.35;3.05;;;22.40;99.90;;;;;;5054630;28;20212;-86
2022/03/04 13:22:00;;;;;;;7.72;2.35;;;22.40;99.90;;;;;;5048222;28;20209;-86
2022/03/04 13:24:32;;;;;;;9.95;2.60;;;22.40;99.90;;;;;;5044983;28;20205;-86
2022/03/04 13:27:05;;;;;;;14.30;3.05;;;22.40;99.90;;;;;;5040020;28;20268;-86
2022/03/04 13:29:38;;;;;;;11.82;2.85;;;22.40;99.90;;;;;;5043240;28;20273;-86
2022/03/04 13:32:11;;;;;;;14.02;2.90;;;22.40;99.90;;;;;;5041455;28;20256;-85
2022/03/04 13:34:42;;;;;;;15.30;2.85;;;22.40;99.90;;;;;;5043937;28;20216;-85